createdAt,value
2018-05-11T00:01:20.169Z,10.73
2018-05-11T00:04:00.714Z,12.03
2018-05-11T00:06:41.081Z,11.63
2018-05-11T00:09:22.201Z,10.07
2018-05-11T00:12:02.501Z,9.97
2018-05-11T00:14:42.836Z,9.90
2018-05-11T00:17:23.680Z,10.20
2018-05-11T00:20:04.014Z,9.27
2018-05-11T00:22:44.333Z,9.57
2018-05-11T00:25:25.509Z,8.60
2018-05-11T00:28:05.987Z,9.23
2018-05-11T00:30:46.438Z,10.07
2018-05-11T00:33:26.644Z,10.07
2018-05-11T00:36:06.967Z,11.00
2018-05-11T00:38:47.344Z,12.00
2018-05-11T00:41:27.656Z,11.37
2018-05-11T00:44:07.856Z,10.73
2018-05-11T00:46:48.273Z,9.90
2018-05-11T00:49:29.385Z,10.63
2018-05-11T00:52:09.836Z,10.47
2018-05-11T00:54:50.222Z,10.07
2018-05-11T00:57:30.674Z,10.20
2018-05-11T01:00:10.995Z,9.87
2018-05-11T01:02:51.961Z,10.23
2018-05-11T01:05:32.296Z,12.10
2018-05-11T01:08:13.456Z,11.13
2018-05-11T01:10:55.036Z,12.83
2018-05-11T01:13:35.367Z,11.73
2018-05-11T01:16:15.745Z,11.50
2018-05-11T01:18:56.209Z,12.30
2018-05-11T01:21:36.765Z,12.27
2018-05-11T01:24:17.161Z,11.60
2018-05-11T01:26:57.608Z,10.60
2018-05-11T01:29:37.904Z,12.17
2018-05-11T01:32:18.244Z,12.13
2018-05-11T01:34:58.573Z,11.57
2018-05-11T01:37:39.017Z,11.50
2018-05-11T01:40:19.467Z,11.70
2018-05-11T01:42:59.769Z,11.80
2018-05-11T01:45:40.108Z,12.47
2018-05-11T01:48:20.467Z,12.97
2018-05-11T01:51:01.158Z,13.13
2018-05-11T01:53:41.621Z,12.03
2018-05-11T01:56:22.844Z,11.30
2018-05-11T02:02:26.064Z,8.70
2018-05-11T02:05:06.532Z,10.10
2018-05-11T02:07:46.838Z,10.73
2018-05-11T02:10:27.131Z,10.33
2018-05-11T02:13:08.595Z,11.93
2018-05-11T02:15:48.900Z,11.27
2018-05-11T02:18:34.646Z,10.50
2018-05-11T02:21:15.669Z,10.40
2018-05-11T02:23:56.002Z,10.60
2018-05-11T02:26:36.324Z,9.77
2018-05-11T02:29:17.548Z,10.20
2018-05-11T02:31:58.647Z,9.87
2018-05-11T02:34:39.005Z,10.47
2018-05-11T02:37:20.277Z,10.73
2018-05-11T02:40:07.844Z,9.63
2018-05-11T02:42:48.391Z,9.90
2018-05-11T02:45:28.817Z,9.47
2018-05-11T02:48:09.132Z,8.53
2018-05-11T02:50:50.602Z,7.47
2018-05-11T02:53:30.804Z,10.47
2018-05-11T02:56:12.088Z,9.37
2018-05-11T02:58:53.890Z,8.33
2018-05-11T03:01:34.344Z,8.87
2018-05-11T03:04:15.259Z,8.70
2018-05-11T03:06:56.054Z,9.57
2018-05-11T03:09:36.558Z,8.53
2018-05-11T03:12:16.893Z,7.30
2018-05-11T03:14:57.407Z,7.40
2018-05-11T03:17:38.633Z,6.53
2018-05-11T03:20:19.040Z,7.20
2018-05-11T03:22:59.534Z,6.83
2018-05-11T03:25:40.596Z,7.43
2018-05-11T03:28:21.637Z,7.03
2018-05-11T03:31:02.378Z,7.27
2018-05-11T03:33:42.995Z,7.63
2018-05-11T03:36:23.420Z,7.93
2018-05-11T03:39:03.872Z,7.10
2018-05-11T03:41:44.075Z,7.07
2018-05-11T03:44:24.859Z,6.63
2018-05-11T03:47:06.232Z,5.97
2018-05-11T03:49:46.611Z,7.20
2018-05-11T03:52:27.032Z,6.63
2018-05-11T03:55:07.245Z,7.70
2018-05-11T03:57:55.372Z,8.50
2018-05-11T04:00:35.747Z,8.37
2018-05-11T04:03:33.837Z,8.00
2018-05-11T04:06:33.057Z,8.73
2018-05-11T04:09:13.480Z,9.43
2018-05-11T04:11:53.809Z,10.83
2018-05-11T04:14:35.994Z,12.57
2018-05-11T04:17:16.452Z,12.23
2018-05-11T04:19:56.847Z,13.20
2018-05-11T04:22:38.225Z,12.33
2018-05-11T04:25:18.672Z,12.50
2018-05-11T04:27:59.220Z,13.87
2018-05-11T04:30:39.488Z,14.33
2018-05-11T04:33:21.260Z,13.07
2018-05-11T04:36:01.704Z,13.97
2018-05-11T04:38:41.881Z,14.77
2018-05-11T04:41:22.259Z,14.10
2018-05-11T04:44:02.665Z,14.53
2018-05-11T04:46:43.508Z,14.63
2018-05-11T04:49:24.528Z,14.43
2018-05-11T04:52:05.069Z,14.53
2018-05-11T04:54:45.393Z,14.03
2018-05-11T04:57:26.404Z,14.70
2018-05-11T05:00:06.865Z,15.07
2018-05-11T05:02:47.200Z,14.10
2018-05-11T05:05:28.554Z,15.83
2018-05-11T05:08:09.089Z,14.27
2018-05-11T05:10:56.362Z,13.47
2018-05-11T05:13:36.790Z,14.40
2018-05-11T05:16:18.135Z,14.37
2018-05-11T05:18:59.045Z,13.90
2018-05-11T05:21:39.565Z,13.83
2018-05-11T05:24:20.303Z,14.00
2018-05-11T05:27:00.661Z,13.07
2018-05-11T05:29:41.868Z,12.30
2018-05-11T05:32:22.898Z,11.90
2018-05-11T05:35:03.348Z,12.63
2018-05-11T05:37:51.160Z,12.47
2018-05-11T05:40:31.568Z,11.93
2018-05-11T05:43:12.819Z,11.00
2018-05-11T05:45:53.734Z,12.30
2018-05-11T05:48:34.064Z,13.77
2018-05-11T05:51:14.466Z,10.17
2018-05-11T05:53:54.810Z,9.53
2018-05-11T05:56:35.160Z,8.53
2018-05-11T05:59:15.478Z,8.87
2018-05-11T06:01:55.875Z,11.47
2018-05-11T06:04:36.338Z,8.03
2018-05-11T06:07:17.255Z,11.47
2018-05-11T06:09:57.597Z,10.20
2018-05-11T06:12:37.968Z,8.97
2018-05-11T06:15:18.461Z,9.50
2018-05-11T06:17:59.085Z,8.70
2018-05-11T06:20:39.286Z,9.37
2018-05-11T06:23:20.120Z,8.97
2018-05-11T06:26:01.325Z,10.13
2018-05-11T06:28:42.414Z,10.80
2018-05-11T06:31:22.927Z,10.47
2018-05-11T06:34:04.210Z,10.27
2018-05-11T06:36:44.713Z,11.40
2018-05-11T06:39:25.924Z,11.30
2018-05-11T06:42:07.073Z,11.37
2018-05-11T06:44:47.532Z,11.80
2018-05-11T06:47:28.008Z,12.17
2018-05-11T06:50:08.357Z,12.03
2018-05-11T06:52:48.677Z,10.50
2018-05-11T06:55:29.189Z,10.00
2018-05-11T06:58:10.041Z,10.30
2018-05-11T07:00:50.838Z,10.43
2018-05-11T07:03:32.653Z,12.03
2018-05-11T07:06:13.913Z,10.90
2018-05-11T07:08:54.918Z,10.60
2018-05-11T07:11:35.133Z,11.57
2018-05-11T07:14:15.628Z,11.50
2018-05-11T07:16:56.246Z,10.83
2018-05-11T07:19:36.565Z,11.90
2018-05-11T07:22:16.980Z,12.33
2018-05-11T07:24:57.321Z,12.13
2018-05-11T07:27:37.639Z,10.83
2018-05-11T07:30:18.020Z,12.73
2018-05-11T07:32:58.900Z,12.33
2018-05-11T07:35:39.212Z,11.73
2018-05-11T07:38:20.456Z,11.70
2018-05-11T07:41:00.757Z,11.07
2018-05-11T07:43:41.190Z,10.07
2018-05-11T07:46:22.038Z,10.60
2018-05-11T07:49:02.376Z,10.80
2018-05-11T07:51:42.594Z,10.27
2018-05-11T07:54:22.964Z,9.47
2018-05-11T07:57:05.068Z,11.60
2018-05-11T07:59:45.909Z,9.17
2018-05-11T08:02:31.718Z,8.93
2018-05-11T08:05:13.918Z,8.90
2018-05-11T08:07:55.853Z,8.00
2018-05-11T08:10:36.205Z,7.77
2018-05-11T08:13:19.111Z,9.33
2018-05-11T08:15:59.498Z,7.50
2018-05-11T08:18:40.945Z,7.87
2018-05-11T08:21:22.399Z,8.17
2018-05-11T08:24:03.508Z,8.13
2018-05-11T08:26:43.907Z,7.87
2018-05-11T08:29:24.647Z,7.13
2018-05-11T08:32:04.953Z,7.10
2018-05-11T08:34:45.433Z,7.90
2018-05-11T08:37:26.256Z,7.23
2018-05-11T08:40:06.614Z,7.67
2018-05-11T08:42:52.210Z,7.43
2018-05-11T08:45:34.329Z,7.90
2018-05-11T08:48:16.208Z,7.70
2018-05-11T08:50:56.830Z,7.73
2018-05-11T08:53:38.702Z,7.00
2018-05-11T08:56:19.002Z,7.27
2018-05-11T08:59:00.084Z,6.80
2018-05-11T09:01:40.454Z,7.10
2018-05-11T09:04:21.611Z,7.30
2018-05-11T09:07:04.997Z,7.57
2018-05-11T09:09:45.653Z,7.60
2018-05-11T09:12:26.100Z,7.67
2018-05-11T09:15:06.337Z,7.63
2018-05-11T09:17:46.665Z,13.30
2018-05-11T09:20:27.062Z,13.87
2018-05-11T09:23:07.447Z,12.77
2018-05-11T09:25:47.771Z,12.17
2018-05-11T09:28:29.202Z,13.10
2018-05-11T09:31:09.561Z,13.00
2018-05-11T09:33:50.850Z,11.90
2018-05-11T09:36:31.565Z,12.63
2018-05-11T09:39:11.756Z,13.10
2018-05-11T09:41:52.185Z,11.20
2018-05-11T09:44:32.455Z,11.03
2018-05-11T09:47:12.877Z,14.23
2018-05-11T09:49:53.620Z,13.27
2018-05-11T09:52:34.091Z,15.03
2018-05-11T09:55:14.452Z,14.40
2018-05-11T09:57:55.604Z,15.93
2018-05-11T10:00:36.122Z,14.60
2018-05-11T10:03:16.389Z,13.27
2018-05-11T10:05:56.780Z,14.40
2018-05-11T10:08:37.981Z,14.10
2018-05-11T10:11:18.309Z,13.77
2018-05-11T10:13:59.153Z,12.53
2018-05-11T10:16:39.499Z,13.20
2018-05-11T10:19:20.376Z,13.77
2018-05-11T10:22:01.664Z,13.83
2018-05-11T10:24:42.095Z,13.70
2018-05-11T10:27:23.002Z,13.00
2018-05-11T10:30:03.311Z,14.03
2018-05-11T10:32:43.675Z,14.53
2018-05-11T10:35:24.809Z,15.13
2018-05-11T10:38:05.117Z,14.37
2018-05-11T10:40:45.510Z,14.27
2018-05-11T10:43:26.247Z,14.43
2018-05-11T10:46:06.603Z,14.73
2018-05-11T10:48:47.758Z,14.60
2018-05-11T10:51:29.126Z,14.70
2018-05-11T10:54:09.456Z,14.50
2018-05-11T10:56:50.635Z,13.93
2018-05-11T10:59:32.646Z,13.80
2018-05-11T11:02:12.952Z,14.43
2018-05-11T11:04:53.962Z,14.23
2018-05-11T11:07:35.092Z,13.67
2018-05-11T11:10:16.614Z,13.87
2018-05-11T11:12:56.921Z,13.13
2018-05-11T11:15:37.308Z,12.73
2018-05-11T11:18:17.692Z,13.77
2018-05-11T11:20:59.036Z,13.07
2018-05-11T11:23:39.424Z,13.47
2018-05-11T11:26:20.459Z,13.13
2018-05-11T11:29:01.722Z,14.10
2018-05-11T11:31:43.099Z,13.93
2018-05-11T11:34:24.969Z,13.13
2018-05-11T11:37:05.293Z,12.57
2018-05-11T11:39:45.709Z,14.00
2018-05-11T11:42:26.429Z,12.93
2018-05-11T11:45:06.963Z,13.97
2018-05-11T11:47:47.180Z,13.10
2018-05-11T11:50:27.674Z,13.90
2018-05-11T11:53:07.881Z,13.13
2018-05-11T11:55:48.220Z,13.17
2018-05-11T11:58:28.963Z,13.77
2018-05-11T12:01:10.499Z,13.10
2018-05-11T12:03:51.756Z,12.63
2018-05-11T12:06:32.516Z,13.03
2018-05-11T12:09:12.949Z,13.07
2018-05-11T12:11:53.998Z,13.87
2018-05-11T12:14:34.760Z,14.40
2018-05-11T12:17:15.208Z,12.97
2018-05-11T12:19:55.518Z,12.33
2018-05-11T12:22:35.909Z,13.60
2018-05-11T12:25:16.302Z,12.73
2018-05-11T12:27:56.592Z,12.37
2018-05-11T12:30:37.714Z,13.00
2018-05-11T12:33:23.887Z,12.40
2018-05-11T12:36:04.373Z,14.53
2018-05-11T12:38:44.569Z,13.60
2018-05-11T12:41:25.018Z,14.30
2018-05-11T12:44:06.321Z,13.77
2018-05-11T12:46:46.549Z,13.70
2018-05-11T12:49:26.856Z,13.53
2018-05-11T12:52:07.037Z,13.53
2018-05-11T12:54:48.124Z,13.07
2018-05-11T12:57:28.824Z,14.53
2018-05-11T13:00:09.134Z,13.70
2018-05-11T13:02:50.392Z,14.57
2018-05-11T13:05:31.539Z,15.73
2018-05-11T13:08:20.681Z,14.83
2018-05-11T13:11:01.684Z,14.70
2018-05-11T13:13:42.066Z,16.33
2018-05-11T13:16:22.790Z,15.07
2018-05-11T13:19:03.129Z,17.27
2018-05-11T13:21:44.310Z,16.27
2018-05-11T13:24:24.655Z,15.87
2018-05-11T13:27:04.979Z,17.03
2018-05-11T13:29:45.968Z,15.17
2018-05-11T13:32:26.315Z,15.73
2018-05-11T13:35:06.748Z,14.73
2018-05-11T13:37:47.079Z,13.83
2018-05-11T13:40:27.392Z,12.77
2018-05-11T13:43:07.607Z,12.73
2018-05-11T13:45:48.056Z,11.27
2018-05-11T13:48:28.865Z,11.03
2018-05-11T13:51:09.967Z,8.93
2018-05-11T13:53:51.396Z,7.80
2018-05-11T13:56:31.841Z,7.17
2018-05-11T13:59:12.149Z,6.97
2018-05-11T14:01:52.947Z,5.83
2018-05-11T14:04:33.491Z,5.53
2018-05-11T14:07:14.594Z,4.83
2018-05-11T14:09:54.942Z,4.40
2018-05-11T14:12:36.025Z,4.07
2018-05-11T14:15:16.406Z,4.63
2018-05-11T14:17:56.740Z,4.07
2018-05-11T14:20:38.564Z,3.97
2018-05-11T14:23:19.113Z,3.57
2018-05-11T14:26:00.437Z,3.33
2018-05-11T14:28:41.770Z,4.07
2018-05-11T14:31:22.318Z,4.10
2018-05-11T14:34:03.625Z,3.70
2018-05-11T14:36:44.483Z,3.80
2018-05-11T14:39:24.965Z,4.17
2018-05-11T14:42:05.294Z,3.97
2018-05-11T14:44:45.609Z,3.63
2018-05-11T14:47:25.913Z,4.27
2018-05-11T14:50:06.258Z,3.63
2018-05-11T14:52:46.638Z,4.93
2018-05-11T14:55:26.954Z,5.40
2018-05-11T14:58:10.458Z,5.67
2018-05-11T15:00:51.688Z,5.27
2018-05-11T15:03:32.016Z,5.03
2018-05-11T15:06:12.382Z,5.27
2018-05-11T15:08:53.430Z,5.23
2018-05-11T15:11:33.932Z,5.20
2018-05-11T15:14:14.349Z,5.50
2018-05-11T15:16:55.527Z,5.83
2018-05-11T15:19:36.734Z,5.33
2018-05-11T15:22:17.089Z,4.90
2018-05-11T15:24:57.424Z,5.30
2018-05-11T15:27:39.154Z,5.07
2018-05-11T15:30:20.913Z,4.67
2018-05-11T15:33:01.284Z,3.97
2018-05-11T15:35:41.659Z,4.80
2018-05-11T15:38:22.457Z,4.37
2018-05-11T15:41:02.920Z,10.73
2018-05-11T15:43:43.385Z,9.23
2018-05-11T15:46:24.719Z,7.30
2018-05-11T15:49:05.436Z,9.10
2018-05-11T15:51:45.885Z,9.23
2018-05-11T15:54:26.277Z,7.77
2018-05-11T15:57:08.252Z,5.60
2018-05-11T15:59:48.604Z,7.60
2018-05-11T16:02:29.457Z,6.10
2018-05-11T16:05:09.807Z,5.77
2018-05-11T16:07:50.913Z,6.63
2018-05-11T16:10:32.236Z,5.80
2018-05-11T16:13:15.356Z,6.00
2018-05-11T16:15:56.788Z,6.80
2018-05-11T16:18:38.170Z,6.17
2018-05-11T16:21:18.532Z,6.20
2018-05-11T16:23:59.294Z,7.40
2018-05-11T16:26:40.133Z,7.27
2018-05-11T16:29:21.950Z,8.53
2018-05-11T16:32:02.329Z,9.43
2018-05-11T16:34:42.745Z,9.20
2018-05-11T16:37:25.321Z,6.93
2018-05-11T16:40:06.704Z,5.93
2018-05-11T16:42:47.148Z,6.70
2018-05-11T16:45:27.573Z,7.67
2018-05-11T16:48:07.897Z,7.37
2018-05-11T16:50:51.807Z,8.07
2018-05-11T16:53:32.902Z,9.10
2018-05-11T16:56:13.365Z,9.17
2018-05-11T16:58:55.347Z,9.40
2018-05-11T17:01:36.178Z,8.50
2018-05-11T17:04:16.561Z,8.30
2018-05-11T17:06:58.175Z,8.40
2018-05-11T17:09:39.543Z,7.40
2018-05-11T17:12:20.591Z,7.10
2018-05-11T17:15:00.925Z,7.43
2018-05-11T17:17:42.315Z,7.57
2018-05-11T17:20:23.175Z,8.67
2018-05-11T17:23:06.128Z,7.73
2018-05-11T17:25:47.213Z,7.57
2018-05-11T17:28:27.609Z,7.60
2018-05-11T17:31:08.745Z,7.90
2018-05-11T17:33:49.171Z,7.63
2018-05-11T17:36:30.112Z,7.80
2018-05-11T17:39:11.694Z,7.80
2018-05-11T17:41:52.210Z,7.30
2018-05-11T17:44:33.593Z,7.03
2018-05-11T17:47:14.210Z,8.00
2018-05-11T17:49:54.943Z,9.43
2018-05-11T17:52:36.852Z,7.83
2018-05-11T17:55:18.352Z,9.07
2018-05-11T17:57:59.445Z,9.90
2018-05-11T18:00:41.933Z,10.67
2018-05-11T18:03:23.251Z,10.50
2018-05-11T18:06:04.462Z,9.80
2018-05-11T18:08:44.833Z,10.33
2018-05-11T18:11:25.305Z,10.20
2018-05-11T18:14:05.705Z,10.30
2018-05-11T18:16:47.569Z,12.00
2018-05-11T18:19:27.879Z,10.80
2018-05-11T18:22:08.809Z,11.90
2018-05-11T18:24:49.266Z,11.47
2018-05-11T18:27:29.584Z,11.23
2018-05-11T18:30:10.705Z,14.13
2018-05-11T18:32:51.842Z,17.87
2018-05-11T18:38:20.725Z,16.53
2018-05-11T18:41:01.944Z,11.83
2018-05-11T18:43:43.369Z,10.90
2018-05-11T18:46:28.880Z,12.40
2018-05-11T18:49:09.789Z,13.10
2018-05-11T18:51:50.722Z,15.27
2018-05-11T18:54:32.188Z,16.63
2018-05-11T18:57:11.981Z,13.87
2018-05-11T18:59:53.910Z,13.40
2018-05-11T19:02:34.102Z,12.93
2018-05-11T19:05:14.518Z,13.40
2018-05-11T19:07:55.009Z,14.70
2018-05-11T19:10:35.336Z,14.47
2018-05-11T19:13:16.236Z,14.07
2018-05-11T19:15:56.924Z,15.33
2018-05-11T19:18:38.586Z,14.07
2018-05-11T19:21:20.465Z,13.90
2018-05-11T19:24:01.692Z,13.23
2018-05-11T19:26:41.999Z,13.13
2018-05-11T19:29:23.233Z,14.10
2018-05-11T19:32:03.901Z,15.17
2018-05-11T19:34:44.262Z,15.43
2018-05-11T19:37:24.987Z,15.23
2018-05-11T19:40:05.331Z,15.40
2018-05-11T19:42:45.818Z,16.10
2018-05-11T19:45:26.181Z,15.17
2018-05-11T19:48:06.512Z,15.53
2018-05-11T19:50:46.930Z,15.97
2018-05-11T19:53:28.085Z,17.90
2018-05-11T19:56:13.509Z,19.60
2018-05-11T19:58:55.598Z,17.53
2018-05-11T20:01:36.889Z,18.43
2018-05-11T20:04:17.209Z,15.83
2018-05-11T20:06:59.373Z,17.53
2018-05-11T20:09:39.690Z,16.30
2018-05-11T20:12:21.081Z,15.60
2018-05-11T20:15:01.448Z,14.13
2018-05-11T20:17:41.749Z,14.53
2018-05-11T20:20:22.608Z,12.93
2018-05-11T20:23:02.910Z,14.13
2018-05-11T20:25:43.242Z,12.77
2018-05-11T20:28:23.600Z,12.73
2018-05-11T20:31:03.979Z,14.40
2018-05-11T20:33:44.525Z,15.07
2018-05-11T20:36:26.154Z,13.33
2018-05-11T20:39:06.680Z,12.97
2018-05-11T20:41:46.910Z,13.83
2018-05-11T20:44:27.328Z,15.00
2018-05-11T20:47:08.345Z,12.43
2018-05-11T20:49:48.833Z,13.97
2018-05-11T20:52:29.749Z,12.43
2018-05-11T20:55:10.064Z,11.70
2018-05-11T20:57:50.988Z,9.60
2018-05-11T21:00:31.381Z,9.30
2018-05-11T21:03:11.738Z,9.50
2018-05-11T21:05:53.506Z,10.17
2018-05-11T21:08:34.807Z,10.80
2018-05-11T21:11:22.336Z,10.63
2018-05-11T21:14:02.669Z,10.77
2018-05-11T21:16:43.089Z,13.23
2018-05-11T21:19:23.545Z,13.33
2018-05-11T21:22:03.886Z,13.50
2018-05-11T21:24:44.214Z,12.57
2018-05-11T21:27:25.307Z,13.37
2018-05-11T21:30:05.766Z,12.83
2018-05-11T21:32:46.159Z,12.57
2018-05-11T21:35:32.058Z,19.97
2018-05-11T21:38:12.545Z,14.97
2018-05-11T21:40:52.862Z,14.77
2018-05-11T21:43:33.224Z,14.53
2018-05-11T21:46:13.556Z,13.93
2018-05-11T21:48:53.894Z,13.90
2018-05-11T21:51:34.230Z,14.70
2018-05-11T21:54:14.581Z,13.77
2018-05-11T21:56:55.492Z,13.80
2018-05-11T21:59:35.902Z,13.70
2018-05-11T22:02:16.396Z,14.53
2018-05-11T22:04:56.754Z,14.60
2018-05-11T22:07:37.155Z,16.83
2018-05-11T22:10:19.080Z,17.80
2018-05-11T22:13:00.653Z,20.83
2018-05-11T22:15:41.009Z,22.30
2018-05-11T22:18:22.205Z,21.20
2018-05-11T22:21:02.612Z,19.20
2018-05-11T22:23:43.065Z,18.93
2018-05-11T22:26:23.837Z,18.03
2018-05-11T22:29:04.275Z,18.53
2018-05-11T22:31:44.669Z,19.20
2018-05-11T22:34:25.125Z,17.73
2018-05-11T22:37:05.458Z,17.17
2018-05-11T22:39:46.534Z,17.47
2018-05-11T22:42:28.578Z,16.53
2018-05-11T22:45:09.537Z,15.47
2018-05-11T22:47:49.856Z,14.77
2018-05-11T22:50:30.299Z,15.27
2018-05-11T22:53:15.648Z,16.57
2018-05-11T22:55:56.003Z,16.00
2018-05-11T22:58:36.362Z,17.60
2018-05-11T23:01:16.790Z,18.47
2018-05-11T23:03:57.116Z,19.00
2018-05-11T23:06:37.801Z,18.53
2018-05-11T23:09:18.125Z,18.83
2018-05-11T23:11:58.352Z,18.00
2018-05-11T23:14:38.700Z,16.90
2018-05-11T23:17:19.120Z,17.63
2018-05-11T23:20:00.696Z,17.83
2018-05-11T23:22:41.035Z,17.40
2018-05-11T23:25:25.646Z,17.53
2018-05-11T23:28:07.513Z,16.93
2018-05-11T23:30:54.629Z,15.57
2018-05-11T23:33:37.836Z,14.90
2018-05-11T23:36:18.930Z,15.70
2018-05-11T23:39:01.997Z,15.67
2018-05-11T23:41:44.401Z,16.27
2018-05-11T23:44:25.433Z,17.23
2018-05-11T23:47:07.773Z,16.77
2018-05-11T23:49:49.169Z,16.77
2018-05-11T23:52:29.987Z,16.47
2018-05-11T23:55:10.315Z,16.47
2018-05-11T23:57:51.334Z,16.17
